Time,TemperatureF,DewpointF,PressureIn,WindDirection,WindDirectionDegrees,WindSpeedMPH,WindSpeedGustMPH,Humidity,HourlyPrecipIn,Conditions,Clouds,dailyrainin,SoftwareType,DateUTC
2013-09-07 00:05:00,60.2,58.8,30.06,North,1,0.0,1.0,95,0.00,,,0.00,Wunderground v.1.15,2013-09-07 04:05:00,
2013-09-07 00:09:00,60.2,58.8,30.06,North,1,0.0,0.0,95,0.00,,,0.00,Wunderground v.1.15,2013-09-07 04:09:00,
2013-09-07 00:14:00,60.1,58.7,30.06,North,1,0.0,0.0,95,0.00,,,0.00,Wunderground v.1.15,2013-09-07 04:14:00,
2013-09-07 00:19:00,60.0,58.6,30.06,North,1,0.0,0.0,95,0.00,,,0.00,Wunderground v.1.15,2013-09-07 04:19:00,
2013-09-07 00:24:00,59.9,58.5,30.06,North,1,0.0,0.0,95,0.00,,,0.00,Wunderground v.1.15,2013-09-07 04:24:00,
2013-09-07 00:29:00,59.9,58.5,30.06,North,1,0.0,0.0,95,0.00,,,0.00,Wunderground v.1.15,2013-09-07 04:29:00,
2013-09-07 00:39:00,59.7,58.3,30.06,North,1,0.0,0.0,95,0.00,,,0.00,Wunderground v.1.15,2013-09-07 04:39:00,
2013-09-07 00:44:00,59.6,58.2,30.06,North,1,0.0,0.0,95,0.00,,,0.00,Wunderground v.1.15,2013-09-07 04:44:00,
2013-09-07 00:49:00,59.5,58.1,30.06,North,1,0.0,0.0,95,0.00,,,0.00,Wunderground v.1.15,2013-09-07 04:49:00,
2013-09-07 00:59:00,59.3,57.9,30.06,North,1,0.0,0.0,95,0.00,,,0.00,Wunderground v.1.15,2013-09-07 04:59:00,
2013-09-07 01:04:00,59.3,58.2,30.06,North,1,0.0,0.0,96,0.00,,,0.00,Wunderground v.1.15,2013-09-07 05:04:00,
2013-09-07 01:09:00,59.2,58.1,30.06,North,1,0.0,0.0,96,0.00,,,0.00,Wunderground v.1.15,2013-09-07 05:09:00,
2013-09-07 01:14:00,59.2,58.1,30.06,North,1,0.0,0.0,96,0.00,,,0.00,Wunderground v.1.15,2013-09-07 05:14:00,
2013-09-07 01:24:00,59.0,57.9,30.06,North,1,0.0,0.0,96,0.00,,,0.00,Wunderground v.1.15,2013-09-07 05:24:00,
2013-09-07 01:29:00,58.9,57.8,30.06,North,1,0.0,0.0,96,0.00,,,0.00,Wunderground v.1.15,2013-09-07 05:29:00,
2013-09-07 01:34:00,58.9,57.8,30.06,North,1,0.0,0.0,96,0.00,,,0.00,Wunderground v.1.15,2013-09-07 05:34:00,
2013-09-07 01:39:00,58.8,57.7,30.06,North,1,0.0,0.0,96,0.00,,,0.00,Wunderground v.1.15,2013-09-07 05:39:00,
2013-09-07 01:44:00,58.7,57.6,30.06,North,1,0.0,0.0,96,0.00,,,0.00,Wunderground v.1.15,2013-09-07 05:44:00,
2013-09-07 01:54:00,58.5,57.4,30.06,North,1,0.0,0.0,96,0.00,,,0.00,Wunderground v.1.15,2013-09-07 05:54:00,
2013-09-07 01:59:00,58.5,57.4,30.06,North,1,0.0,0.0,96,0.00,,,0.00,Wunderground v.1.15,2013-09-07 05:59:00,
2013-09-07 02:04:00,58.4,57.3,30.05,North,1,0.0,0.0,96,0.00,,,0.00,Wunderground v.1.15,2013-09-07 06:04:00,
2013-09-07 02:09:00,58.3,57.2,30.05,North,1,0.0,0.0,96,0.00,,,0.00,Wunderground v.1.15,2013-09-07 06:09:00,
2013-09-07 02:14:00,58.2,57.1,30.04,North,1,0.0,0.0,96,0.00,,,0.00,Wunderground v.1.15,2013-09-07 06:14:00,
2013-09-07 02:24:00,58.1,57.0,30.04,North,1,0.0,0.0,96,0.00,,,0.00,Wunderground v.1.15,2013-09-07 06:24:00,
2013-09-07 02:29:00,58.0,56.9,30.04,North,1,0.0,0.0,96,0.00,,,0.00,Wunderground v.1.15,2013-09-07 06:29:00,
2013-09-07 02:34:00,58.0,56.9,30.05,North,1,0.0,0.0,96,0.00,,,0.00,Wunderground v.1.15,2013-09-07 06:34:00,
2013-09-07 02:39:00,57.9,56.8,30.05,North,1,0.0,0.0,96,0.00,,,0.00,Wunderground v.1.15,2013-09-07 06:39:00,
2013-09-07 02:49:00,57.8,56.7,30.04,North,1,0.0,0.0,96,0.00,,,0.00,Wunderground v.1.15,2013-09-07 06:49:00,
2013-09-07 02:54:00,57.7,56.6,30.04,North,1,0.0,0.0,96,0.00,,,0.00,Wunderground v.1.15,2013-09-07 06:54:00,
2013-09-07 02:59:00,57.7,56.6,30.04,North,1,0.0,0.0,96,0.00,,,0.00,Wunderground v.1.15,2013-09-07 06:59:00,
2013-09-07 03:04:00,57.6,56.5,30.04,North,1,0.0,0.0,96,0.00,,,0.00,Wunderground v.1.15,2013-09-07 07:04:00,
2013-09-07 03:14:00,57.5,56.4,30.04,North,1,0.0,0.0,96,0.00,,,0.00,Wunderground v.1.15,2013-09-07 07:14:00,
2013-09-07 03:19:00,57.4,56.3,30.04,North,1,0.0,0.0,96,0.00,,,0.00,Wunderground v.1.15,2013-09-07 07:19:00,
2013-09-07 03:24:00,57.3,56.2,30.04,North,1,0.0,0.0,96,0.00,,,0.00,Wunderground v.1.15,2013-09-07 07:24:00,
2013-09-07 03:29:00,57.3,56.2,30.04,North,1,0.0,0.0,96,0.00,,,0.00,Wunderground v.1.15,2013-09-07 07:29:00,
2013-09-07 03:39:00,57.1,56.0,30.04,North,1,0.0,0.0,96,0.00,,,0.00,Wunderground v.1.15,2013-09-07 07:39:00,
2013-09-07 03:44:00,57.0,55.9,30.04,North,1,0.0,0.0,96,0.00,,,0.00,Wunderground v.1.15,2013-09-07 07:44:00,
2013-09-07 03:49:00,56.9,55.8,30.03,North,1,0.0,0.0,96,0.00,,,0.00,Wunderground v.1.15,2013-09-07 07:49:00,
2013-09-07 03:54:00,56.9,55.8,30.03,North,1,0.0,0.0,96,0.00,,,0.00,Wunderground v.1.15,2013-09-07 07:54:00,
2013-09-07 04:04:00,56.7,55.6,30.04,North,1,0.0,0.0,96,0.00,,,0.00,Wunderground v.1.15,2013-09-07 08:04:00,
2013-09-07 04:09:00,56.7,55.6,30.04,North,1,0.0,0.0,96,0.00,,,0.00,Wunderground v.1.15,2013-09-07 08:09:00,
2013-09-07 04:14:00,56.6,55.5,30.04,North,1,0.0,0.0,96,0.00,,,0.00,Wunderground v.1.15,2013-09-07 08:14:00,
2013-09-07 04:19:00,56.6,55.5,30.04,North,1,0.0,0.0,96,0.00,,,0.00,Wunderground v.1.15,2013-09-07 08:19:00,
2013-09-07 04:29:00,56.4,55.3,30.04,North,1,0.0,0.0,96,0.00,,,0.00,Wunderground v.1.15,2013-09-07 08:29:00,
2013-09-07 04:34:00,56.4,55.3,30.04,North,1,0.0,0.0,96,0.00,,,0.00,Wunderground v.1.15,2013-09-07 08:34:00,
2013-09-07 04:39:00,56.4,55.6,30.04,North,1,0.0,0.0,97,0.00,,,0.00,Wunderground v.1.15,2013-09-07 08:39:00,
2013-09-07 04:44:00,56.4,55.6,30.04,North,1,0.0,0.0,97,0.00,,,0.00,Wunderground v.1.15,2013-09-07 08:44:00,
2013-09-07 04:49:00,56.4,55.6,30.04,North,1,0.0,0.0,97,0.00,,,0.00,Wunderground v.1.15,2013-09-07 08:49:00,
2013-09-07 04:59:00,56.3,55.5,30.04,North,1,0.0,0.0,97,0.00,,,0.00,Wunderground v.1.15,2013-09-07 08:59:00,
2013-09-07 05:04:00,56.2,55.4,30.03,North,1,0.0,0.0,97,0.00,,,0.00,Wunderground v.1.15,2013-09-07 09:04:00,
2013-09-07 05:09:00,56.1,55.0,30.03,North,1,0.0,0.0,96,0.00,,,0.00,Wunderground v.1.15,2013-09-07 09:09:00,
2013-09-07 05:14:00,56.0,55.2,30.04,North,1,0.0,0.0,97,0.00,,,0.00,Wunderground v.1.15,2013-09-07 09:14:00,
2013-09-07 05:19:00,56.0,54.9,30.04,North,1,0.0,0.0,96,0.00,,,0.00,Wunderground v.1.15,2013-09-07 09:19:00,
2013-09-07 05:29:00,55.9,55.1,30.04,North,1,0.0,0.0,97,0.00,,,0.00,Wunderground v.1.15,2013-09-07 09:29:00,
2013-09-07 05:34:00,55.8,55.0,30.04,North,1,0.0,0.0,97,0.00,,,0.00,Wunderground v.1.15,2013-09-07 09:34:00,
2013-09-07 05:39:00,55.8,55.0,30.04,North,1,0.0,0.0,97,0.00,,,0.00,Wunderground v.1.15,2013-09-07 09:39:00,
2013-09-07 05:44:00,55.8,55.0,30.04,North,1,0.0,0.0,97,0.00,,,0.00,Wunderground v.1.15,2013-09-07 09:44:00,
2013-09-07 05:49:00,55.7,54.9,30.04,North,1,0.0,0.0,97,0.00,,,0.00,Wunderground v.1.15,2013-09-07 09:49:00,
2013-09-07 05:59:00,55.6,54.8,30.04,North,1,0.0,0.0,97,0.00,,,0.00,Wunderground v.1.15,2013-09-07 09:59:00,
2013-09-07 06:04:00,55.6,54.8,30.04,North,1,0.0,0.0,97,0.00,,,0.00,Wunderground v.1.15,2013-09-07 10:04:00,
2013-09-07 06:09:00,55.6,54.8,30.04,North,1,0.0,0.0,97,0.00,,,0.00,Wunderground v.1.15,2013-09-07 10:09:00,
2013-09-07 06:14:00,55.6,54.8,30.05,North,1,0.0,0.0,97,0.00,,,0.00,Wunderground v.1.15,2013-09-07 10:14:00,
2013-09-07 06:24:00,55.5,54.7,30.05,North,1,0.0,0.0,97,0.00,,,0.00,Wunderground v.1.15,2013-09-07 10:24:00,
2013-09-07 06:29:00,55.5,54.7,30.05,North,1,0.0,0.0,97,0.00,,,0.00,Wunderground v.1.15,2013-09-07 10:29:00,
2013-09-07 06:34:00,55.4,54.6,30.05,North,1,0.0,0.0,97,0.00,,,0.00,Wunderground v.1.15,2013-09-07 10:34:00,
2013-09-07 06:39:00,55.3,54.5,30.05,North,1,0.0,0.0,97,0.00,,,0.00,Wunderground v.1.15,2013-09-07 10:39:00,
2013-09-07 06:49:00,55.3,54.5,30.05,North,1,0.0,0.0,97,0.00,,,0.00,Wunderground v.1.15,2013-09-07 10:49:00,
2013-09-07 06:54:00,55.2,54.4,30.05,North,1,0.0,0.0,97,0.00,,,0.00,Wunderground v.1.15,2013-09-07 10:54:00,
2013-09-07 06:59:00,55.2,54.4,30.05,North,1,0.0,0.0,97,0.00,,,0.00,Wunderground v.1.15,2013-09-07 10:59:00,
2013-09-07 07:04:00,55.3,54.5,30.06,North,1,0.0,0.0,97,0.00,,,0.00,Wunderground v.1.15,2013-09-07 11:04:00,
2013-09-07 07:09:00,55.3,54.5,30.06,North,1,0.0,0.0,97,0.00,,,0.00,Wunderground v.1.15,2013-09-07 11:09:00,
2013-09-07 07:19:00,55.3,54.5,30.06,North,1,0.0,0.0,97,0.00,,,0.00,Wunderground v.1.15,2013-09-07 11:19:00,
2013-09-07 07:24:00,55.3,54.5,30.06,North,1,0.0,0.0,97,0.00,,,0.00,Wunderground v.1.15,2013-09-07 11:24:00,
2013-09-07 07:29:00,55.3,54.5,30.06,North,1,0.0,0.0,97,0.00,,,0.00,Wunderground v.1.15,2013-09-07 11:29:00,
2013-09-07 07:34:00,55.3,54.5,30.06,North,1,0.0,0.0,97,0.00,,,0.00,Wunderground v.1.15,2013-09-07 11:34:00,
2013-09-07 07:39:00,55.4,54.6,30.06,North,1,0.0,0.0,97,0.00,,,0.00,Wunderground v.1.15,2013-09-07 11:39:00,
2013-09-07 07:49:00,55.6,54.8,30.06,North,1,0.0,0.0,97,0.00,,,0.00,Wunderground v.1.15,2013-09-07 11:49:00,
2013-09-07 07:54:00,55.7,54.9,30.06,North,1,0.0,0.0,97,0.00,,,0.00,Wunderground v.1.15,2013-09-07 11:54:00,
2013-09-07 07:59:00,55.9,55.3,30.07,North,1,0.0,0.0,98,0.00,,,0.00,Wunderground v.1.15,2013-09-07 11:59:00,
2013-09-07 08:04:00,56.0,55.4,30.07,North,1,0.0,0.0,98,0.00,,,0.00,Wunderground v.1.15,2013-09-07 12:04:00,
2013-09-07 08:14:00,56.3,55.7,30.07,North,1,0.0,0.0,98,0.00,,,0.00,Wunderground v.1.15,2013-09-07 12:14:00,
2013-09-07 08:19:00,56.6,56.0,30.07,North,1,0.0,0.0,98,0.00,,,0.00,Wunderground v.1.15,2013-09-07 12:19:00,
2013-09-07 08:24:00,56.8,56.2,30.07,North,1,0.0,0.0,98,0.00,,,0.00,Wunderground v.1.15,2013-09-07 12:24:00,
2013-09-07 08:29:00,57.0,56.4,30.06,North,1,0.0,0.0,98,0.00,,,0.00,Wunderground v.1.15,2013-09-07 12:29:00,
2013-09-07 08:34:00,57.3,56.7,30.06,North,1,0.0,0.0,98,0.00,,,0.00,Wunderground v.1.15,2013-09-07 12:34:00,
2013-09-07 08:44:00,57.8,57.2,30.06,North,1,0.0,0.0,98,0.00,,,0.00,Wunderground v.1.15,2013-09-07 12:44:00,
2013-09-07 08:49:00,58.2,57.6,30.06,North,1,0.0,0.0,98,0.00,,,0.00,Wunderground v.1.15,2013-09-07 12:49:00,
2013-09-07 08:54:00,58.7,58.4,30.06,North,1,0.0,0.0,99,0.00,,,0.00,Wunderground v.1.15,2013-09-07 12:54:00,
2013-09-07 08:59:00,59.2,58.9,30.06,North,1,0.0,0.0,99,0.00,,,0.00,Wunderground v.1.15,2013-09-07 12:59:00,
2013-09-07 09:09:00,60.1,59.8,30.06,North,1,0.0,0.0,99,0.00,,,0.00,Wunderground v.1.15,2013-09-07 13:09:00,
2013-09-07 09:14:00,60.7,60.4,30.06,SE,134,0.0,1.0,99,0.00,,,0.00,Wunderground v.1.15,2013-09-07 13:14:00,
2013-09-07 09:19:00,61.2,60.9,30.06,SE,137,0.0,0.0,99,0.00,,,0.00,Wunderground v.1.15,2013-09-07 13:19:00,
2013-09-07 09:24:00,61.8,61.5,30.06,SE,131,0.0,0.0,99,0.00,,,0.00,Wunderground v.1.15,2013-09-07 13:24:00,
2013-09-07 09:29:00,62.0,61.7,30.05,SSW,194,0.0,0.0,99,0.00,,,0.00,Wunderground v.1.15,2013-09-07 13:29:00,
2013-09-07 09:39:00,62.7,62.4,30.05,SE,124,1.0,1.0,99,0.00,,,0.00,Wunderground v.1.15,2013-09-07 13:39:00,
2013-09-07 09:44:00,63.1,62.5,30.05,WSW,254,1.0,1.0,98,0.00,,,0.00,Wunderground v.1.15,2013-09-07 13:44:00,
2013-09-07 09:49:00,63.3,62.4,30.05,West,265,1.0,1.0,97,0.00,,,0.00,Wunderground v.1.15,2013-09-07 13:49:00,
2013-09-07 09:54:00,63.6,61.8,30.05,SE,143,1.0,1.0,94,0.00,,,0.00,Wunderground v.1.15,2013-09-07 13:54:00,
2013-09-07 09:59:00,64.1,62.3,30.05,East,88,0.0,0.0,94,0.00,,,0.00,Wunderground v.1.15,2013-09-07 13:59:00,
2013-09-07 10:09:00,64.9,62.8,30.05,South,171,1.0,1.0,93,0.00,,,0.00,Wunderground v.1.15,2013-09-07 14:09:00,
2013-09-07 10:14:00,65.2,61.9,30.05,South,171,1.0,1.0,89,0.00,,,0.00,Wunderground v.1.15,2013-09-07 14:14:00,
2013-09-07 10:19:00,65.6,62.9,30.05,South,171,0.0,0.0,91,0.00,,,0.00,Wunderground v.1.15,2013-09-07 14:19:00,
2013-09-07 10:24:00,66.0,63.3,30.05,South,171,0.0,0.0,91,0.00,,,0.00,Wunderground v.1.15,2013-09-07 14:24:00,
2013-09-07 10:34:00,66.7,64.0,30.05,South,171,0.0,1.0,91,0.00,,,0.00,Wunderground v.1.15,2013-09-07 14:34:00,
2013-09-07 10:39:00,67.0,63.3,30.05,South,171,0.0,0.0,88,0.00,,,0.00,Wunderground v.1.15,2013-09-07 14:39:00,
2013-09-07 10:44:00,67.5,63.8,30.05,South,171,0.0,0.0,88,0.00,,,0.00,Wunderground v.1.15,2013-09-07 14:44:00,
2013-09-07 10:49:00,68.1,62.0,30.06,South,171,0.0,0.0,81,0.00,,,0.00,Wunderground v.1.15,2013-09-07 14:49:00,
2013-09-07 10:54:00,68.8,64.8,30.06,SE,146,1.0,1.0,87,0.00,,,0.00,Wunderground v.1.15,2013-09-07 14:54:00,
2013-09-07 11:04:00,69.6,63.5,30.06,NW,322,0.0,1.0,81,0.00,,,0.00,Wunderground v.1.15,2013-09-07 15:04:00,
2013-09-07 11:09:00,70.0,64.6,30.06,South,183,0.0,3.0,83,0.00,,,0.00,Wunderground v.1.15,2013-09-07 15:09:00,
2013-09-07 11:14:00,70.3,64.9,30.06,SSE,153,1.0,3.0,83,0.00,,,0.00,Wunderground v.1.15,2013-09-07 15:14:00,
2013-09-07 11:19:00,70.6,65.5,30.05,SE,140,0.0,0.0,84,0.00,,,0.00,Wunderground v.1.15,2013-09-07 15:19:00,
2013-09-07 11:29:00,71.2,65.8,30.05,SSW,210,0.0,0.0,83,0.00,,,0.00,Wunderground v.1.15,2013-09-07 15:29:00,
2013-09-07 11:34:00,71.6,65.8,30.04,ESE,121,0.0,2.0,82,0.00,,,0.00,Wunderground v.1.15,2013-09-07 15:34:00,
2013-09-07 11:39:00,71.9,63.9,30.04,North,8,1.0,1.0,76,0.00,,,0.00,Wunderground v.1.15,2013-09-07 15:39:00,
2013-09-07 11:44:00,72.6,65.0,30.04,WNW,297,1.0,1.0,77,0.00,,,0.00,Wunderground v.1.15,2013-09-07 15:44:00,
2013-09-07 11:49:00,73.0,65.4,30.04,West,278,1.0,1.0,77,0.00,,,0.00,Wunderground v.1.15,2013-09-07 15:49:00,
2013-09-07 11:59:00,73.5,64.3,30.04,SW,217,1.0,1.0,73,0.00,,,0.00,Wunderground v.1.15,2013-09-07 15:59:00,
2013-09-07 12:05:00,74.1,65.3,30.03,WNW,283,0.0,2.0,74,0.00,,,0.00,Wunderground v.1.15,2013-09-07 16:05:00,
2013-09-07 12:14:00,75.5,67.0,30.03,SE,137,0.0,2.0,75,0.00,,,0.00,Wunderground v.1.15,2013-09-07 16:14:00,
2013-09-07 12:19:00,76.0,67.9,30.02,ENE,63,0.0,2.0,76,0.00,,,0.00,Wunderground v.1.15,2013-09-07 16:19:00,
2013-09-07 12:24:00,76.4,68.3,30.02,SSE,155,1.0,2.0,76,0.00,,,0.00,Wunderground v.1.15,2013-09-07 16:24:00,
2013-09-07 12:29:00,76.6,66.9,30.02,South,175,1.0,2.0,72,0.00,,,0.00,Wunderground v.1.15,2013-09-07 16:29:00,
2013-09-07 12:34:00,76.9,65.1,30.02,West,281,1.0,2.0,67,0.00,,,0.00,Wunderground v.1.15,2013-09-07 16:34:00,
2013-09-07 12:44:00,77.3,66.7,30.02,ESE,109,0.0,2.0,70,0.00,,,0.00,Wunderground v.1.15,2013-09-07 16:44:00,
2013-09-07 12:49:00,77.4,67.7,30.01,North,358,0.0,2.0,72,0.00,,,0.00,Wunderground v.1.15,2013-09-07 16:49:00,
2013-09-07 12:54:00,77.3,68.0,30.01,North,358,0.0,2.0,73,0.00,,,0.00,Wunderground v.1.15,2013-09-07 16:54:00,
2013-09-07 12:59:00,77.5,66.5,30.01,NW,311,0.0,2.0,69,0.00,,,0.00,Wunderground v.1.15,2013-09-07 16:59:00,
2013-09-07 13:09:00,78.7,66.8,30.01,South,175,0.0,2.0,67,0.00,,,0.00,Wunderground v.1.15,2013-09-07 17:09:00,
2013-09-07 13:14:00,78.6,66.7,30.01,SSW,207,1.0,2.0,67,0.00,,,0.00,Wunderground v.1.15,2013-09-07 17:14:00,
2013-09-07 13:19:00,78.3,66.4,30.01,WSW,250,1.0,1.0,67,0.00,,,0.00,Wunderground v.1.15,2013-09-07 17:19:00,
2013-09-07 13:24:00,78.1,67.1,30.01,WSW,249,0.0,2.0,69,0.00,,,0.00,Wunderground v.1.15,2013-09-07 17:24:00,
2013-09-07 13:34:00,77.2,67.5,30.01,WSW,249,0.0,2.0,72,0.00,,,0.00,Wunderground v.1.15,2013-09-07 17:34:00,
2013-09-07 13:39:00,77.2,68.3,30.01,WSW,249,0.0,2.0,74,0.00,,,0.00,Wunderground v.1.15,2013-09-07 17:39:00,
2013-09-07 13:44:00,77.7,67.5,30.01,NNW,327,0.0,2.0,71,0.00,,,0.00,Wunderground v.1.15,2013-09-07 17:44:00,
2013-09-07 13:49:00,78.0,67.4,30.00,NNW,327,1.0,1.0,70,0.00,,,0.00,Wunderground v.1.15,2013-09-07 17:49:00,
2013-09-07 13:54:00,78.4,67.0,30.00,SSW,198,1.0,4.0,68,0.00,,,0.00,Wunderground v.1.15,2013-09-07 17:54:00,
2013-09-07 14:04:00,79.0,67.5,29.99,South,174,1.0,2.0,68,0.00,,,0.00,Wunderground v.1.15,2013-09-07 18:04:00,
2013-09-07 14:09:00,79.1,68.5,29.99,ESE,122,1.0,1.0,70,0.00,,,0.00,Wunderground v.1.15,2013-09-07 18:09:00,
2013-09-07 14:14:00,79.6,69.0,29.99,East,96,0.0,2.0,70,0.00,,,0.00,Wunderground v.1.15,2013-09-07 18:14:00,
2013-09-07 14:19:00,80.0,67.6,29.99,East,96,0.0,2.0,66,0.00,,,0.00,Wunderground v.1.15,2013-09-07 18:19:00,
2013-09-07 14:29:00,80.9,68.0,29.99,North,357,0.0,2.0,65,0.00,,,0.00,Wunderground v.1.15,2013-09-07 18:29:00,
2013-09-07 14:34:00,81.2,67.9,29.98,NNW,339,0.0,2.0,64,0.00,,,0.00,Wunderground v.1.15,2013-09-07 18:34:00,
2013-09-07 14:39:00,81.0,67.7,29.98,NW,307,1.0,1.0,64,0.00,,,0.00,Wunderground v.1.15,2013-09-07 18:39:00,
2013-09-07 14:44:00,80.6,68.2,29.97,NW,311,1.0,2.0,66,0.00,,,0.00,Wunderground v.1.15,2013-09-07 18:44:00,
2013-09-07 14:49:00,80.9,67.1,29.97,NW,314,1.0,1.0,63,0.00,,,0.00,Wunderground v.1.15,2013-09-07 18:49:00,
2013-09-07 14:59:00,81.1,68.2,29.97,SSW,200,0.0,2.0,65,0.00,,,0.00,Wunderground v.1.15,2013-09-07 18:59:00,
2013-09-07 15:04:00,81.3,68.4,29.97,West,259,1.0,2.0,65,0.00,,,0.00,Wunderground v.1.15,2013-09-07 19:04:00,
2013-09-07 15:09:00,81.0,68.1,29.97,West,272,0.0,2.0,65,0.00,,,0.00,Wunderground v.1.15,2013-09-07 19:09:00,
2013-09-07 15:19:00,80.0,68.1,29.96,South,187,0.0,2.0,67,0.00,,,0.00,Wunderground v.1.15,2013-09-07 19:19:00,
2013-09-07 15:24:00,78.7,66.8,29.96,WNW,299,0.0,2.0,67,0.00,,,0.00,Wunderground v.1.15,2013-09-07 19:24:00,
2013-09-07 15:29:00,78.3,67.7,29.96,NW,316,1.0,1.0,70,0.00,,,0.00,Wunderground v.1.15,2013-09-07 19:29:00,
2013-09-07 15:34:00,77.4,68.9,29.96,NW,314,0.0,2.0,75,0.00,,,0.00,Wunderground v.1.15,2013-09-07 19:34:00,
2013-09-07 15:39:00,77.1,69.3,29.96,NW,314,0.0,2.0,77,0.00,,,0.00,Wunderground v.1.15,2013-09-07 19:39:00,
2013-09-07 15:49:00,77.0,68.9,29.95,NW,314,0.0,2.0,76,0.00,,,0.00,Wunderground v.1.15,2013-09-07 19:49:00,
2013-09-07 15:54:00,77.4,68.9,29.95,West,264,1.0,2.0,75,0.00,,,0.00,Wunderground v.1.15,2013-09-07 19:54:00,
2013-09-07 15:59:00,77.6,67.4,29.95,WSW,252,1.0,2.0,71,0.00,,,0.00,Wunderground v.1.15,2013-09-07 19:59:00,
2013-09-07 16:04:00,77.6,67.9,29.94,West,276,1.0,2.0,72,0.00,,,0.00,Wunderground v.1.15,2013-09-07 20:04:00,
2013-09-07 16:14:00,77.3,67.6,29.94,West,276,0.0,2.0,72,0.00,,,0.00,Wunderground v.1.15,2013-09-07 20:14:00,
2013-09-07 16:19:00,76.9,67.6,29.94,West,276,0.0,2.0,73,0.00,,,0.00,Wunderground v.1.15,2013-09-07 20:19:00,
2013-09-07 16:24:00,76.6,67.7,29.94,NE,41,0.0,2.0,74,0.00,,,0.00,Wunderground v.1.15,2013-09-07 20:24:00,
2013-09-07 16:29:00,76.3,68.6,29.94,North,11,0.0,2.0,77,0.00,,,0.00,Wunderground v.1.15,2013-09-07 20:29:00,
2013-09-07 16:34:00,76.1,68.4,29.94,North,4,0.0,2.0,77,0.00,,,0.00,Wunderground v.1.15,2013-09-07 20:34:00,
2013-09-07 16:44:00,75.7,67.2,29.94,North,4,0.0,2.0,75,0.00,,,0.00,Wunderground v.1.15,2013-09-07 20:44:00,
2013-09-07 16:49:00,75.5,68.2,29.94,North,3,0.0,2.0,78,0.00,,,0.00,Wunderground v.1.15,2013-09-07 20:49:00,
2013-09-07 16:54:00,75.2,67.5,29.94,North,8,0.0,2.0,77,0.00,,,0.00,Wunderground v.1.15,2013-09-07 20:54:00,
2013-09-07 16:59:00,75.1,68.1,29.94,North,8,0.0,2.0,79,0.00,,,0.00,Wunderground v.1.15,2013-09-07 20:59:00,
2013-09-07 17:09:00,75.0,69.1,29.94,North,8,0.0,2.0,82,0.00,,,0.00,Wunderground v.1.15,2013-09-07 21:09:00,
2013-09-07 17:14:00,75.0,68.0,29.94,North,8,0.0,2.0,79,0.00,,,0.00,Wunderground v.1.15,2013-09-07 21:14:00,
2013-09-07 17:19:00,75.0,68.4,29.94,North,8,0.0,2.0,80,0.00,,,0.00,Wunderground v.1.15,2013-09-07 21:19:00,
2013-09-07 17:24:00,74.9,68.7,29.94,North,8,0.0,2.0,81,0.00,,,0.00,Wunderground v.1.15,2013-09-07 21:24:00,
2013-09-07 17:29:00,74.8,68.6,29.94,North,8,0.0,2.0,81,0.00,,,0.00,Wunderground v.1.15,2013-09-07 21:29:00,
2013-09-07 17:39:00,74.7,67.4,29.94,North,8,0.0,2.0,78,0.00,,,0.00,Wunderground v.1.15,2013-09-07 21:39:00,
2013-09-07 17:44:00,74.7,67.8,29.94,North,8,0.0,2.0,79,0.00,,,0.00,Wunderground v.1.15,2013-09-07 21:44:00,
2013-09-07 17:49:00,74.7,67.8,29.93,North,8,0.0,2.0,79,0.00,,,0.00,Wunderground v.1.15,2013-09-07 21:49:00,
2013-09-07 17:54:00,74.6,68.0,29.93,North,8,0.0,2.0,80,0.00,,,0.00,Wunderground v.1.15,2013-09-07 21:54:00,
2013-09-07 18:04:00,74.4,68.2,29.93,North,8,0.0,2.0,81,0.00,,,0.00,Wunderground v.1.15,2013-09-07 22:04:00,
2013-09-07 18:09:00,74.2,68.0,29.93,North,8,0.0,2.0,81,0.00,,,0.00,Wunderground v.1.15,2013-09-07 22:09:00,
2013-09-07 18:19:00,74.0,67.4,29.93,North,8,0.0,2.0,80,0.00,,,0.00,Wunderground v.1.15,2013-09-07 22:19:00,
2013-09-07 18:24:00,73.8,67.6,29.93,North,8,0.0,2.0,81,0.00,,,0.00,Wunderground v.1.15,2013-09-07 22:24:00,
2013-09-07 18:29:00,73.7,67.9,29.93,North,8,0.0,2.0,82,0.00,,,0.00,Wunderground v.1.15,2013-09-07 22:29:00,
2013-09-07 18:34:00,73.6,67.8,29.93,North,8,0.0,2.0,82,0.00,,,0.00,Wunderground v.1.15,2013-09-07 22:34:00,
2013-09-07 18:39:00,73.4,67.6,29.93,North,8,0.0,2.0,82,0.00,,,0.00,Wunderground v.1.15,2013-09-07 22:39:00,
2013-09-07 18:49:00,72.9,67.8,29.92,North,8,0.0,2.0,84,0.00,,,0.00,Wunderground v.1.15,2013-09-07 22:49:00,
2013-09-07 18:54:00,72.7,67.9,29.92,North,8,0.0,2.0,85,0.00,,,0.00,Wunderground v.1.15,2013-09-07 22:54:00,
2013-09-07 18:59:00,72.4,68.0,29.92,North,8,0.0,2.0,86,0.00,,,0.00,Wunderground v.1.15,2013-09-07 22:59:00,
2013-09-07 19:04:00,72.1,67.7,29.92,North,8,0.0,2.0,86,0.00,,,0.00,Wunderground v.1.15,2013-09-07 23:04:00,
2013-09-07 19:09:00,71.8,67.7,29.92,North,8,0.0,2.0,87,0.00,,,0.00,Wunderground v.1.15,2013-09-07 23:09:00,
2013-09-07 19:19:00,71.3,67.6,29.92,North,8,0.0,2.0,88,0.00,,,0.00,Wunderground v.1.15,2013-09-07 23:19:00,
2013-09-07 19:24:00,71.1,67.7,29.92,North,8,0.0,2.0,89,0.00,,,0.00,Wunderground v.1.15,2013-09-07 23:24:00,
2013-09-07 19:29:00,70.8,67.4,29.92,North,8,0.0,2.0,89,0.00,,,0.00,Wunderground v.1.15,2013-09-07 23:29:00,
2013-09-07 19:34:00,70.6,67.5,29.92,North,8,0.0,2.0,90,0.00,,,0.00,Wunderground v.1.15,2013-09-07 23:34:00,
2013-09-07 19:44:00,70.3,67.2,29.92,North,8,0.0,2.0,90,0.00,,,0.00,Wunderground v.1.15,2013-09-07 23:44:00,
2013-09-07 19:49:00,70.0,67.3,29.93,North,8,0.0,2.0,91,0.00,,,0.00,Wunderground v.1.15,2013-09-07 23:49:00,
2013-09-07 19:54:00,69.8,67.1,29.93,North,8,0.0,2.0,91,0.00,,,0.00,Wunderground v.1.15,2013-09-07 23:54:00,
2013-09-07 19:59:00,69.7,67.0,29.92,North,8,0.0,2.0,91,0.00,,,0.00,Wunderground v.1.15,2013-09-07 23:59:00,
2013-09-07 20:09:00,69.2,66.5,29.92,North,8,0.0,2.0,91,0.00,,,0.00,Wunderground v.1.15,2013-09-08 00:09:00,
2013-09-07 20:14:00,68.9,66.5,29.92,North,8,0.0,2.0,92,0.00,,,0.00,Wunderground v.1.15,2013-09-08 00:14:00,
2013-09-07 20:19:00,68.7,66.3,29.93,North,8,0.0,2.0,92,0.00,,,0.00,Wunderground v.1.15,2013-09-08 00:19:00,
2013-09-07 20:24:00,68.5,66.1,29.93,North,8,0.0,2.0,92,0.00,,,0.00,Wunderground v.1.15,2013-09-08 00:24:00,
2013-09-07 20:29:00,68.2,65.8,29.93,North,8,0.0,2.0,92,0.00,,,0.00,Wunderground v.1.15,2013-09-08 00:29:00,
2013-09-07 20:39:00,67.9,65.8,29.93,North,8,0.0,2.0,93,0.00,,,0.00,Wunderground v.1.15,2013-09-08 00:39:00,
2013-09-07 20:44:00,67.7,65.6,29.93,North,8,0.0,2.0,93,0.00,,,0.00,Wunderground v.1.15,2013-09-08 00:44:00,
2013-09-07 20:49:00,67.5,65.4,29.93,North,8,0.0,2.0,93,0.00,,,0.00,Wunderground v.1.15,2013-09-08 00:49:00,
2013-09-07 20:54:00,67.4,65.6,29.93,North,8,0.0,2.0,94,0.00,,,0.00,Wunderground v.1.15,2013-09-08 00:54:00,
2013-09-07 20:59:00,67.2,65.1,29.93,North,8,0.0,2.0,93,0.00,,,0.00,Wunderground v.1.15,2013-09-08 00:59:00,
2013-09-07 21:09:00,66.9,65.1,29.93,North,8,0.0,2.0,94,0.00,,,0.00,Wunderground v.1.15,2013-09-08 01:09:00,
2013-09-07 21:14:00,66.7,64.9,29.93,North,8,0.0,2.0,94,0.00,,,0.00,Wunderground v.1.15,2013-09-08 01:14:00,
2013-09-07 21:19:00,66.6,64.8,29.93,North,8,0.0,2.0,94,0.00,,,0.00,Wunderground v.1.15,2013-09-08 01:19:00,
2013-09-07 21:24:00,66.5,64.7,29.93,North,8,0.0,2.0,94,0.00,,,0.00,Wunderground v.1.15,2013-09-08 01:24:00,
2013-09-07 21:29:00,66.3,64.5,29.93,North,8,0.0,2.0,94,0.00,,,0.00,Wunderground v.1.15,2013-09-08 01:29:00,
2013-09-07 21:39:00,66.1,64.6,29.93,North,8,0.0,2.0,95,0.00,,,0.00,Wunderground v.1.15,2013-09-08 01:39:00,
2013-09-07 21:44:00,66.0,64.5,29.93,North,8,0.0,2.0,95,0.00,,,0.00,Wunderground v.1.15,2013-09-08 01:44:00,
2013-09-07 21:49:00,65.8,64.3,29.93,North,8,0.0,2.0,95,0.00,,,0.00,Wunderground v.1.15,2013-09-08 01:49:00,
2013-09-07 21:59:00,65.6,64.1,29.93,North,8,0.0,2.0,95,0.00,,,0.00,Wunderground v.1.15,2013-09-08 01:59:00,
2013-09-07 22:04:00,65.5,64.0,29.93,North,8,0.0,2.0,95,0.00,,,0.00,Wunderground v.1.15,2013-09-08 02:04:00,
2013-09-07 22:09:00,65.4,63.9,29.93,North,8,0.0,2.0,95,0.00,,,0.00,Wunderground v.1.15,2013-09-08 02:09:00,
2013-09-07 22:14:00,65.3,63.8,29.93,North,8,0.0,2.0,95,0.00,,,0.00,Wunderground v.1.15,2013-09-08 02:14:00,
2013-09-07 22:24:00,65.1,63.6,29.93,North,8,0.0,2.0,95,0.00,,,0.00,Wunderground v.1.15,2013-09-08 02:24:00,
2013-09-07 22:29:00,65.0,63.5,29.93,North,8,0.0,2.0,95,0.00,,,0.00,Wunderground v.1.15,2013-09-08 02:29:00,
2013-09-07 22:34:00,64.9,63.4,29.93,North,8,0.0,2.0,95,0.00,,,0.00,Wunderground v.1.15,2013-09-08 02:34:00,
2013-09-07 22:39:00,64.9,63.4,29.93,North,8,0.0,2.0,95,0.00,,,0.00,Wunderground v.1.15,2013-09-08 02:39:00,
2013-09-07 22:44:00,64.8,63.3,29.92,North,8,0.0,2.0,95,0.00,,,0.00,Wunderground v.1.15,2013-09-08 02:44:00,
2013-09-07 22:54:00,64.6,63.1,29.92,North,8,0.0,2.0,95,0.00,,,0.00,Wunderground v.1.15,2013-09-08 02:54:00,
2013-09-07 22:59:00,64.6,63.4,29.92,North,8,0.0,2.0,96,0.00,,,0.00,Wunderground v.1.15,2013-09-08 02:59:00,
2013-09-07 23:04:00,64.5,63.3,29.92,North,8,0.0,2.0,96,0.00,,,0.00,Wunderground v.1.15,2013-09-08 03:04:00,
2013-09-07 23:09:00,64.4,63.2,29.92,North,8,0.0,2.0,96,0.00,,,0.00,Wunderground v.1.15,2013-09-08 03:09:00,
2013-09-07 23:19:00,64.2,63.0,29.92,North,8,0.0,2.0,96,0.00,,,0.00,Wunderground v.1.15,2013-09-08 03:19:00,
2013-09-07 23:24:00,64.2,63.0,29.92,North,8,0.0,2.0,96,0.00,,,0.00,Wunderground v.1.15,2013-09-08 03:24:00,
2013-09-07 23:29:00,64.1,62.9,29.92,North,8,0.0,2.0,96,0.00,,,0.00,Wunderground v.1.15,2013-09-08 03:29:00,
2013-09-07 23:34:00,64.0,62.8,29.91,North,8,0.0,2.0,96,0.00,,,0.00,Wunderground v.1.15,2013-09-08 03:34:00,
2013-09-07 23:44:00,63.9,62.7,29.91,North,8,0.0,2.0,96,0.00,,,0.00,Wunderground v.1.15,2013-09-08 03:44:00,
2013-09-07 23:49:00,63.8,62.6,29.91,North,8,0.0,2.0,96,0.00,,,0.00,Wunderground v.1.15,2013-09-08 03:49:00,
2013-09-07 23:54:00,63.8,62.6,29.91,North,8,0.0,2.0,96,0.00,,,0.00,Wunderground v.1.15,2013-09-08 03:54:00,
2013-09-07 23:59:00,63.8,62.6,29.91,North,8,0.0,2.0,96,0.00,,,0.00,Wunderground v.1.15,2013-09-08 03:59:00,